Time;durP1;ratioP1;P1;durP2;ratioP2;P2;SDS_P1;SDS_P2;PMS_P1;PMS_P2;Temp;Humidity;BMP_temperature;BMP_pressure;BME280_temperature;BME280_humidity;BME280_pressure;Samples;Min_cycle;Max_cycle;Signal;HPM_P1;HPM_P2
2024/01/21 00:01:03;;;;;;;19.05;10.80;;;-7.20;49.20;;;;;;5053158;28;20291;-72
2024/01/21 00:03:32;;;;;;;27.23;11.60;;;-7.20;48.40;;;;;;5057151;28;20273;-72
2024/01/21 00:05:59;;;;;;;34.97;13.18;;;-7.30;49.40;;;;;;5057153;28;20282;-72
2024/01/21 00:08:25;;;;;;;20.75;10.98;;;-7.40;49.60;;;;;;5056966;28;20225;-72
2024/01/21 00:10:52;;;;;;;18.15;11.05;;;-7.40;49.90;;;;;;5056996;28;20274;-72
2024/01/21 00:13:19;;;;;;;25.98;13.13;;;-7.40;49.60;;;;;;5057691;28;20566;-72
2024/01/21 00:15:46;;;;;;;21.13;11.65;;;-7.50;49.40;;;;;;5057271;28;20222;-72
2024/01/21 00:18:13;;;;;;;18.50;10.02;;;-7.50;49.30;;;;;;5056966;28;20187;-72
2024/01/21 00:20:42;;;;;;;16.15;8.65;;;-7.50;49.60;;;;;;5056496;28;20241;-72
2024/01/21 00:23:09;;;;;;;18.33;7.70;;;-7.40;50.10;;;;;;5056728;28;20564;-72
2024/01/21 00:25:36;;;;;;;13.07;8.25;;;-7.30;50.60;;;;;;5056831;28;20604;-72
2024/01/21 00:28:03;;;;;;;17.73;8.80;;;-7.30;50.00;;;;;;5056376;28;20273;-71
2024/01/21 00:30:30;;;;;;;12.05;7.05;;;-7.30;49.60;;;;;;5056659;28;20635;-72
2024/01/21 00:32:57;;;;;;;11.48;6.53;;;-7.50;49.70;;;;;;5062585;28;20220;-72
2024/01/21 00:35:23;;;;;;;10.38;7.13;;;-7.40;50.20;;;;;;5076540;28;20273;-72
2024/01/21 00:37:52;;;;;;;9.75;6.95;;;-7.50;50.40;;;;;;5076196;28;20683;-72
2024/01/21 00:40:19;;;;;;;11.45;6.47;;;-7.50;50.50;;;;;;5076243;28;20716;-72
2024/01/21 00:42:46;;;;;;;9.68;6.75;;;-7.50;50.70;;;;;;5070926;28;20258;-72
2024/01/21 00:45:13;;;;;;;9.70;6.97;;;-7.50;51.00;;;;;;5056080;28;20278;-71
2024/01/21 00:47:40;;;;;;;12.50;7.20;;;-7.40;50.40;;;;;;5056395;28;20273;-72
2024/01/21 00:50:07;;;;;;;9.27;6.90;;;-7.40;49.10;;;;;;5056193;28;20216;-72
2024/01/21 00:52:34;;;;;;;11.73;6.35;;;-7.50;48.40;;;;;;5058534;28;20191;-72
2024/01/21 00:55:02;;;;;;;9.35;6.22;;;-7.60;48.20;;;;;;5076258;28;20278;-72
2024/01/21 00:57:29;;;;;;;15.50;8.05;;;-7.60;48.70;;;;;;5075885;28;20277;-72
2024/01/21 00:59:56;;;;;;;7.38;5.20;;;-7.60;48.50;;;;;;5076215;28;20277;-72
2024/01/21 01:02:23;;;;;;;9.60;7.00;;;-7.70;48.30;;;;;;5073838;28;20278;-72
2024/01/21 01:04:50;;;;;;;7.90;5.72;;;-7.70;48.70;;;;;;5064566;28;20214;-72
2024/01/21 01:07:17;;;;;;;16.17;8.07;;;-7.70;49.10;;;;;;5075882;28;20711;-72
2024/01/21 01:09:44;;;;;;;12.70;5.72;;;-7.60;49.70;;;;;;5076126;28;20618;-72
2024/01/21 01:12:13;;;;;;;19.52;7.97;;;-7.60;49.10;;;;;;5075581;28;20193;-72
2024/01/21 01:14:40;;;;;;;15.05;8.93;;;-7.60;48.60;;;;;;5073914;28;20225;-72
2024/01/21 01:17:07;;;;;;;10.77;7.25;;;-7.80;48.70;;;;;;5074460;28;20222;-72
2024/01/21 01:19:34;;;;;;;12.63;6.75;;;-7.90;48.90;;;;;;5075445;28;20186;-72
2024/01/21 01:22:02;;;;;;;8.63;6.43;;;-7.90;49.10;;;;;;5075761;28;20592;-72
2024/01/21 01:24:29;;;;;;;7.35;5.50;;;-8.00;49.50;;;;;;5075593;28;20673;-72
2024/01/21 01:26:55;;;;;;;9.63;6.90;;;-8.10;50.00;;;;;;5075673;28;20277;-72
2024/01/21 01:29:24;;;;;;;10.63;6.15;;;-8.10;50.60;;;;;;5074539;28;20297;-72
2024/01/21 01:31:51;;;;;;;12.23;5.80;;;-8.00;50.90;;;;;;5075257;28;20221;-72
2024/01/21 01:34:18;;;;;;;9.63;5.53;;;-7.90;51.10;;;;;;5075476;28;20269;-72
2024/01/21 01:36:44;;;;;;;12.73;6.40;;;-7.90;50.70;;;;;;5075500;28;20276;-72
2024/01/21 01:39:11;;;;;;;9.57;5.60;;;-7.80;50.30;;;;;;5062495;28;20598;-72
2024/01/21 01:41:38;;;;;;;7.70;5.93;;;-7.80;50.10;;;;;;5065971;28;20229;-72
2024/01/21 01:44:05;;;;;;;8.63;5.50;;;-7.70;50.00;;;;;;5056136;28;20194;-72
2024/01/21 01:46:33;;;;;;;7.53;4.90;;;-7.80;50.00;;;;;;5055285;28;20269;-72
2024/01/21 01:49:00;;;;;;;9.43;5.72;;;-7.80;50.30;;;;;;5055255;28;20225;-72
2024/01/21 01:51:27;;;;;;;6.05;5.40;;;-7.90;50.50;;;;;;5054883;28;20711;-72
2024/01/21 01:53:55;;;;;;;10.25;6.68;;;-7.90;50.90;;;;;;5054902;28;20282;-72
2024/01/21 01:56:22;;;;;;;9.82;5.68;;;-7.90;50.30;;;;;;5074722;28;20221;-72
2024/01/21 01:58:51;;;;;;;9.02;5.55;;;-8.00;49.90;;;;;;5074675;28;20190;-72
2024/01/21 02:01:18;;;;;;;7.53;5.25;;;-8.00;50.00;;;;;;5074817;28;20664;-72
2024/01/21 02:03:47;;;;;;;7.20;4.50;;;-8.00;50.10;;;;;;5072717;28;20586;-72
2024/01/21 02:06:14;;;;;;;9.88;5.57;;;-8.00;50.00;;;;;;5074876;28;20268;-72
2024/01/21 02:08:41;;;;;;;15.32;6.15;;;-8.10;49.80;;;;;;5074867;28;20595;-72
2024/01/21 02:11:08;;;;;;;8.05;5.20;;;-8.00;50.00;;;;;;5074732;28;20305;-72
2024/01/21 02:13:35;;;;;;;9.18;4.95;;;-8.00;50.10;;;;;;5073866;28;20220;-72
2024/01/21 02:16:03;;;;;;;9.50;4.82;;;-7.90;50.20;;;;;;5066276;28;20686;-72
2024/01/21 02:18:31;;;;;;;9.35;5.50;;;-7.90;50.40;;;;;;5074627;28;20285;-72
2024/01/21 02:20:59;;;;;;;7.40;4.63;;;-7.90;50.30;;;;;;5074296;28;20699;-72
2024/01/21 02:23:28;;;;;;;7.75;4.35;;;-7.80;49.80;;;;;;5064903;28;20215;-72
2024/01/21 02:25:55;;;;;;;8.75;4.90;;;-7.80;49.30;;;;;;5054128;28;20191;-72
2024/01/21 02:28:22;;;;;;;6.53;4.72;;;-7.90;48.90;;;;;;5054454;28;20685;-72
2024/01/21 02:30:49;;;;;;;5.55;3.97;;;-8.00;48.70;;;;;;5061961;28;20263;-72
2024/01/21 02:33:16;;;;;;;10.38;4.95;;;-8.00;49.00;;;;;;5060223;28;20179;-72
2024/01/21 02:35:43;;;;;;;10.13;5.78;;;-8.00;49.30;;;;;;5059226;28;20265;-72
2024/01/21 02:38:10;;;;;;;9.15;5.97;;;-8.00;49.60;;;;;;5074249;28;20225;-72
2024/01/21 02:40:39;;;;;;;7.07;4.18;;;-8.00;49.90;;;;;;5066160;28;20266;-72
2024/01/21 02:43:07;;;;;;;10.85;4.07;;;-7.90;50.20;;;;;;5054158;28;20278;-72
2024/01/21 02:45:34;;;;;;;7.80;5.03;;;-7.90;50.50;;;;;;5054234;28;20716;-72
2024/01/21 02:48:01;;;;;;;7.25;5.28;;;-7.90;50.30;;;;;;5054093;28;20306;-72
2024/01/21 02:50:28;;;;;;;12.70;4.40;;;-7.80;50.10;;;;;;5059119;28;20300;-72
2024/01/21 02:52:55;;;;;;;10.00;6.05;;;-7.80;49.80;;;;;;5074036;28;20588;-72
2024/01/21 02:55:22;;;;;;;7.32;5.50;;;-7.90;49.30;;;;;;5073620;28;20277;-72
2024/01/21 02:57:50;;;;;;;6.93;4.68;;;-7.90;49.40;;;;;;5071441;28;20209;-72
2024/01/21 03:00:18;;;;;;;12.82;5.45;;;-7.90;49.40;;;;;;5069214;28;20266;-72
2024/01/21 03:02:45;;;;;;;7.13;4.95;;;-8.00;49.60;;;;;;5053488;28;20273;-72
2024/01/21 03:05:12;;;;;;;8.10;5.18;;;-8.00;49.70;;;;;;5053820;28;20197;-72
2024/01/21 03:07:39;;;;;;;7.03;4.88;;;-8.00;49.60;;;;;;5053767;28;20596;-72
2024/01/21 03:10:07;;;;;;;10.13;4.35;;;-8.00;49.20;;;;;;5055098;28;20302;-72
2024/01/21 03:12:36;;;;;;;5.30;4.43;;;-8.00;49.00;;;;;;5073757;28;20274;-72
2024/01/21 03:15:04;;;;;;;10.52;5.10;;;-8.00;49.00;;;;;;5073681;28;20538;-72
2024/01/21 03:17:31;;;;;;;11.07;5.28;;;-8.00;49.10;;;;;;5067588;28;20523;-72
2024/01/21 03:19:58;;;;;;;10.15;5.85;;;-8.00;49.00;;;;;;5053563;28;20280;-71
2024/01/21 03:22:25;;;;;;;15.98;6.00;;;-8.10;49.00;;;;;;5053608;28;20278;-72
2024/01/21 03:24:52;;;;;;;12.35;5.65;;;-8.20;49.20;;;;;;5053697;28;20269;-72
2024/01/21 03:27:19;;;;;;;12.20;6.15;;;-8.20;49.70;;;;;;5055945;28;20261;-72
2024/01/21 03:29:46;;;;;;;11.35;6.70;;;-8.20;49.70;;;;;;5053655;28;20317;-71
2024/01/21 03:32:14;;;;;;;11.30;6.90;;;-8.20;49.90;;;;;;5053236;28;20279;-72
2024/01/21 03:34:43;;;;;;;10.10;5.07;;;-8.10;50.00;;;;;;5053542;28;20278;-72
2024/01/21 03:37:10;;;;;;;10.85;5.28;;;-8.10;49.20;;;;;;5055910;28;20641;-72
2024/01/21 03:39:36;;;;;;;8.43;4.22;;;-8.20;48.30;;;;;;5077703;28;20282;-72
2024/01/21 03:42:04;;;;;;;11.25;4.57;;;-8.20;48.10;;;;;;5077628;28;20273;-72
2024/01/21 03:44:31;;;;;;;6.50;4.32;;;-8.20;48.20;;;;;;5077551;28;20198;-72
2024/01/21 03:46:57;;;;;;;7.45;4.45;;;-8.20;48.70;;;;;;5077004;28;20269;-71
2024/01/21 03:49:26;;;;;;;9.10;4.47;;;-8.20;49.20;;;;;;5057174;28;20261;-71
2024/01/21 03:51:53;;;;;;;7.22;3.90;;;-8.20;49.70;;;;;;5057367;28;20241;-72
2024/01/21 03:54:20;;;;;;;6.30;4.22;;;-8.20;49.70;;;;;;5057637;28;20273;-72
2024/01/21 03:56:47;;;;;;;6.82;3.78;;;-8.10;50.00;;;;;;5057364;28;20594;-72
2024/01/21 03:59:15;;;;;;;11.73;4.43;;;-8.10;49.80;;;;;;5075287;28;20186;-72
2024/01/21 04:01:45;;;;;;;6.28;3.78;;;-8.20;49.50;;;;;;5076988;28;20201;-72
2024/01/21 04:04:12;;;;;;;5.65;3.40;;;-8.30;50.00;;;;;;5056674;28;20270;-72
2024/01/21 04:06:42;;;;;;;7.63;3.85;;;-8.20;50.20;;;;;;5056885;28;20187;-72
2024/01/21 04:09:09;;;;;;;7.40;4.43;;;-8.30;50.00;;;;;;5073936;28;20582;-72
2024/01/21 04:11:36;;;;;;;7.75;4.30;;;-8.30;50.20;;;;;;5077098;28;20293;-72
2024/01/21 04:14:03;;;;;;;7.53;4.55;;;-8.30;50.30;;;;;;5077151;28;20334;-71
2024/01/21 04:16:31;;;;;;;4.80;3.50;;;-8.30;50.50;;;;;;5076869;28;20309;-72
2024/01/21 04:18:58;;;;;;;4.80;3.35;;;-8.30;50.70;;;;;;5060744;28;20190;-71
2024/01/21 04:21:25;;;;;;;10.90;5.25;;;-8.30;50.90;;;;;;5056543;28;20629;-72
2024/01/21 04:23:53;;;;;;;7.93;4.05;;;-8.20;51.20;;;;;;5056765;28;20286;-72
2024/01/21 04:26:21;;;;;;;6.63;4.30;;;-8.20;51.10;;;;;;5056417;28;20214;-72
2024/01/21 04:28:48;;;;;;;4.85;3.45;;;-8.20;51.10;;;;;;5069810;28;20214;-71
2024/01/21 04:31:15;;;;;;;11.65;4.80;;;-8.10;51.10;;;;;;5076660;28;20246;-72
2024/01/21 04:33:42;;;;;;;6.00;3.20;;;-8.10;51.00;;;;;;5076682;28;20194;-73
2024/01/21 04:36:09;;;;;;;9.98;5.40;;;-8.00;50.80;;;;;;5076610;28;20277;-72
2024/01/21 04:38:36;;;;;;;6.90;3.83;;;-8.00;49.90;;;;;;5063690;28;20213;-72
2024/01/21 04:41:05;;;;;;;6.07;3.72;;;-8.10;49.00;;;;;;5056526;28;20253;-72
2024/01/21 04:43:32;;;;;;;6.88;5.00;;;-8.10;48.30;;;;;;5056392;28;20223;-72
2024/01/21 04:45:59;;;;;;;4.30;3.05;;;-8.10;47.70;;;;;;5056376;28;20218;-72
2024/01/21 04:48:26;;;;;;;5.97;3.42;;;-8.10;46.50;;;;;;5065235;28;20681;-72
2024/01/21 04:50:53;;;;;;;8.07;3.85;;;-8.30;45.60;;;;;;5076137;28;20302;-72
2024/01/21 04:53:20;;;;;;;7.25;3.95;;;-8.40;46.00;;;;;;5076307;28;20218;-72
2024/01/21 04:55:47;;;;;;;8.48;5.32;;;-8.60;46.60;;;;;;5076292;28;20282;-72
2024/01/21 04:58:15;;;;;;;11.32;5.28;;;-8.60;47.10;;;;;;5066134;28;20185;-72
2024/01/21 05:00:42;;;;;;;7.95;3.80;;;-8.60;47.70;;;;;;5076202;28;20197;-72
2024/01/21 05:03:09;;;;;;;5.80;4.05;;;-8.60;46.70;;;;;;5076320;28;20186;-72
2024/01/21 05:05:36;;;;;;;8.70;4.80;;;-8.60;46.60;;;;;;5076095;28;20281;-72
2024/01/21 05:08:04;;;;;;;8.10;4.75;;;-8.70;46.20;;;;;;5068678;28;20218;-72
2024/01/21 05:10:31;;;;;;;10.60;5.28;;;-8.80;46.30;;;;;;5055943;28;20293;-72
2024/01/21 05:12:58;;;;;;;6.60;3.92;;;-8.80;46.40;;;;;;5055973;28;20226;-73
2024/01/21 05:15:30;;;;;;;8.98;4.45;;;-8.90;46.40;;;;;;5055975;28;20314;-73
2024/01/21 05:18:00;;;;;;;9.25;4.00;;;-8.90;46.90;;;;;;5062840;28;20213;-73
2024/01/21 05:20:27;;;;;;;8.15;3.40;;;-8.90;47.20;;;;;;5055704;28;20274;-73
2024/01/21 05:22:54;;;;;;;7.85;4.63;;;-8.90;47.30;;;;;;5055377;28;20274;-73
2024/01/21 05:25:21;;;;;;;5.13;3.50;;;-8.90;47.60;;;;;;5055600;28;20187;-72
2024/01/21 05:27:48;;;;;;;11.10;5.50;;;-8.90;47.60;;;;;;5068472;28;20258;-72
2024/01/21 05:30:16;;;;;;;6.30;4.75;;;-8.90;47.80;;;;;;5055449;28;20218;-73
2024/01/21 05:32:46;;;;;;;8.38;4.05;;;-8.90;47.80;;;;;;5055536;28;20217;-72
2024/01/21 05:35:13;;;;;;;7.75;4.40;;;-8.90;47.70;;;;;;5055109;28;20190;-72
2024/01/21 05:37:40;;;;;;;6.93;3.53;;;-8.90;47.70;;;;;;5056924;28;20274;-72
2024/01/21 05:40:08;;;;;;;7.72;3.85;;;-8.90;47.40;;;;;;5075110;28;20643;-72
2024/01/21 05:42:35;;;;;;;9.68;4.20;;;-9.00;47.20;;;;;;5075073;28;20244;-72
2024/01/21 05:45:02;;;;;;;12.32;4.57;;;-9.00;47.50;;;;;;5075367;28;20272;-72
2024/01/21 05:47:29;;;;;;;9.65;4.47;;;-8.90;48.00;;;;;;5074118;28;20224;-72
2024/01/21 05:49:57;;;;;;;8.63;4.80;;;-8.80;47.90;;;;;;5054882;28;20691;-72
2024/01/21 05:52:24;;;;;;;9.55;4.28;;;-8.80;47.70;;;;;;5054716;28;20298;-73
2024/01/21 05:54:51;;;;;;;6.18;4.03;;;-8.90;47.50;;;;;;5055184;28;20222;-72
2024/01/21 05:57:18;;;;;;;13.05;4.82;;;-8.90;47.60;;;;;;5055008;28;20279;-72
2024/01/21 05:59:45;;;;;;;5.75;3.72;;;-8.90;47.70;;;;;;5072409;28;20662;-72
2024/01/21 06:02:12;;;;;;;15.77;6.25;;;-8.90;47.60;;;;;;5075057;28;20284;-72
2024/01/21 06:04:40;;;;;;;7.47;4.53;;;-8.90;47.60;;;;;;5075067;28;20222;-73
2024/01/21 06:07:08;;;;;;;7.32;4.55;;;-8.80;48.10;;;;;;5074867;28;20187;-73
2024/01/21 06:09:35;;;;;;;7.85;4.53;;;-8.80;48.20;;;;;;5056674;28;20270;-72
2024/01/21 06:12:02;;;;;;;6.40;4.07;;;-8.80;48.30;;;;;;5064856;28;20213;-72
2024/01/21 06:14:29;;;;;;;7.93;4.47;;;-8.80;48.80;;;;;;5066772;28;20216;-72
2024/01/21 06:16:56;;;;;;;5.18;3.55;;;-8.80;48.30;;;;;;5074995;28;20300;-72
2024/01/21 06:19:23;;;;;;;6.43;4.05;;;-8.80;48.10;;;;;;5054810;28;20271;-73
2024/01/21 06:21:50;;;;;;;7.32;3.55;;;-8.80;48.30;;;;;;5054613;28;20222;-72
2024/01/21 06:24:18;;;;;;;5.40;3.60;;;-8.80;48.50;;;;;;5054263;28;20696;-73
2024/01/21 06:26:45;;;;;;;6.78;4.10;;;-8.80;48.70;;;;;;5064727;28;20220;-72
2024/01/21 06:29:13;;;;;;;6.78;3.63;;;-8.80;48.80;;;;;;5056113;28;20225;-73
2024/01/21 06:31:40;;;;;;;5.25;3.33;;;-8.80;48.40;;;;;;5054329;28;20266;-72
2024/01/21 06:34:07;;;;;;;5.10;3.17;;;-8.80;48.20;;;;;;5053984;28;20687;-72
2024/01/21 06:36:35;;;;;;;18.25;6.32;;;-8.80;48.30;;;;;;5052003;28;20241;-72
2024/01/21 06:39:03;;;;;;;8.98;5.85;;;-8.80;48.50;;;;;;5068261;28;20281;-72
2024/01/21 06:41:31;;;;;;;6.45;3.75;;;-8.80;48.60;;;;;;5073497;28;20190;-73
2024/01/21 06:43:58;;;;;;;7.72;4.20;;;-8.80;48.80;;;;;;5073697;28;20235;-72
2024/01/21 06:46:25;;;;;;;7.82;4.30;;;-8.70;48.80;;;;;;5073245;28;20281;-72
2024/01/21 06:48:52;;;;;;;6.65;3.90;;;-8.70;48.00;;;;;;5057041;28;20213;-72
2024/01/21 06:51:31;;;;;;;5.32;4.10;;;-8.70;47.70;;;;;;5052904;28;20644;-72
2024/01/21 06:53:59;;;;;;;8.85;4.63;;;-8.70;47.20;;;;;;5053386;28;20202;-72
2024/01/21 06:56:26;;;;;;;8.32;5.38;;;-8.70;47.20;;;;;;5053224;28;20191;-72
2024/01/21 06:58:55;;;;;;;7.90;5.07;;;-8.70;47.20;;;;;;5067089;28;20265;-72
2024/01/21 07:01:22;;;;;;;9.88;5.50;;;-8.80;47.20;;;;;;5073347;28;20281;-73
2024/01/21 07:03:49;;;;;;;6.50;4.28;;;-8.80;47.40;;;;;;5073269;28;20190;-72
2024/01/21 07:06:16;;;;;;;32.63;16.67;;;-8.80;47.60;;;;;;5072628;28;20273;-72
2024/01/21 07:08:43;;;;;;;29.67;17.85;;;-8.80;48.40;;;;;;5059175;28;20187;-72
2024/01/21 07:11:10;;;;;;;22.95;15.63;;;-8.80;49.00;;;;;;5052992;28;20297;-73
2024/01/21 07:13:38;;;;;;;24.88;12.10;;;-8.80;49.30;;;;;;5067215;28;20239;-73
2024/01/21 07:16:07;;;;;;;13.50;8.55;;;-8.70;49.60;;;;;;5072696;28;20373;-72
2024/01/21 07:18:34;;;;;;;9.85;7.10;;;-8.70;49.60;;;;;;5060841;28;20238;-72
2024/01/21 07:21:01;;;;;;;11.20;5.60;;;-8.60;49.70;;;;;;5052946;28;20600;-73
2024/01/21 07:23:28;;;;;;;11.23;6.32;;;-8.40;49.80;;;;;;5052646;28;20636;-73
2024/01/21 07:25:57;;;;;;;6.30;4.35;;;-8.30;49.90;;;;;;5052211;28;20680;-72
2024/01/21 07:28:24;;;;;;;11.18;7.28;;;-8.10;50.10;;;;;;5061934;28;20261;-72
2024/01/21 07:30:51;;;;;;;12.13;7.93;;;-7.80;50.10;;;;;;5072569;28;20682;-72
2024/01/21 07:33:20;;;;;;;12.35;6.78;;;-7.60;49.80;;;;;;5072954;28;20273;-72
2024/01/21 07:35:49;;;;;;;9.73;5.50;;;-7.50;49.50;;;;;;5069968;28;20182;-72
2024/01/21 07:38:17;;;;;;;9.85;6.25;;;-7.20;49.70;;;;;;5056396;28;20186;-72
2024/01/21 07:40:45;;;;;;;7.13;4.25;;;-6.90;48.60;;;;;;5052644;28;20285;-72
2024/01/21 07:43:12;;;;;;;11.07;5.55;;;-6.70;46.70;;;;;;5067423;28;20608;-72
2024/01/21 07:45:39;;;;;;;11.18;5.75;;;-6.70;45.70;;;;;;5072591;28;20190;-72
2024/01/21 07:48:07;;;;;;;9.50;4.85;;;-6.60;45.30;;;;;;5065330;28;20178;-72
2024/01/21 07:50:35;;;;;;;11.65;6.22;;;-6.50;44.80;;;;;;5052534;28;20277;-72
2024/01/21 07:53:02;;;;;;;9.98;5.95;;;-6.40;45.20;;;;;;5052303;28;20752;-72
2024/01/21 07:55:29;;;;;;;10.20;7.65;;;-6.20;45.60;;;;;;5052312;28;20278;-72
2024/01/21 07:57:56;;;;;;;12.05;8.15;;;-6.00;46.10;;;;;;5052634;28;20221;-73
2024/01/21 08:00:23;;;;;;;14.35;7.68;;;-5.70;46.20;;;;;;5052470;28;20218;-72
2024/01/21 08:02:50;;;;;;;18.77;10.65;;;-5.40;46.70;;;;;;5052408;28;20364;-72
2024/01/21 08:05:18;;;;;;;15.80;9.07;;;-5.10;45.70;;;;;;5052527;28;20527;-72
2024/01/21 08:07:46;;;;;;;18.13;8.90;;;-4.90;46.20;;;;;;5055239;28;20186;-73
2024/01/21 08:10:13;;;;;;;17.83;11.90;;;-4.50;46.90;;;;;;5072477;28;20225;-72
2024/01/21 08:12:42;;;;;;;23.85;11.68;;;-4.10;46.60;;;;;;5072278;28;20301;-72
2024/01/21 08:15:09;;;;;;;12.52;8.40;;;-3.80;46.10;;;;;;5072376;28;20591;-73
2024/01/21 08:17:36;;;;;;;14.95;8.00;;;-3.40;46.60;;;;;;5071480;28;20228;-72
2024/01/21 08:20:05;;;;;;;12.70;6.43;;;-3.00;46.30;;;;;;5071980;28;20194;-72
2024/01/21 08:22:32;;;;;;;10.13;5.50;;;-2.60;46.20;;;;;;5072782;28;20190;-73
2024/01/21 08:25:00;;;;;;;10.35;6.75;;;-2.30;45.80;;;;;;5075992;28;20194;-73
2024/01/21 08:27:27;;;;;;;13.07;7.40;;;-2.00;44.90;;;;;;5089037;28;20223;-73
2024/01/21 08:29:54;;;;;;;17.00;9.00;;;-1.70;44.30;;;;;;5075556;28;20186;-73
2024/01/21 08:32:21;;;;;;;16.17;6.40;;;-1.50;44.00;;;;;;5076064;28;20275;-73
2024/01/21 08:34:48;;;;;;;10.88;5.75;;;-1.30;43.50;;;;;;5076001;28;20581;-73
2024/01/21 08:37:15;;;;;;;12.95;7.72;;;-1.30;43.20;;;;;;5076251;28;20218;-73
2024/01/21 08:39:43;;;;;;;13.70;6.93;;;-1.20;43.50;;;;;;5075639;28;20236;-72
2024/01/21 08:42:11;;;;;;;9.77;6.10;;;-1.00;43.70;;;;;;5075601;28;20190;-72
2024/01/21 08:44:38;;;;;;;9.30;5.45;;;-0.80;44.30;;;;;;5075681;28;20256;-73
2024/01/21 08:47:05;;;;;;;11.93;6.40;;;-0.50;44.40;;;;;;5072898;28;20213;-73
2024/01/21 08:49:32;;;;;;;13.20;8.93;;;-0.30;44.90;;;;;;5075310;28;20651;-72
2024/01/21 08:51:59;;;;;;;18.90;10.30;;;-0.20;44.20;;;;;;5075023;28;20303;-73
2024/01/21 08:54:26;;;;;;;12.88;9.32;;;-0.30;44.30;;;;;;5075462;28;20634;-73
2024/01/21 08:56:53;;;;;;;10.50;6.50;;;-0.30;44.30;;;;;;5087258;28;20242;-73
2024/01/21 08:59:22;;;;;;;24.17;13.68;;;-0.10;44.60;;;;;;5093278;28;20186;-72
2024/01/21 09:01:49;;;;;;;21.35;13.18;;;0.10;44.50;;;;;;5095719;28;20281;-73
2024/01/21 09:04:16;;;;;;;10.20;6.55;;;0.50;45.40;;;;;;5092832;28;20627;-73
2024/01/21 09:06:44;;;;;;;37.35;21.17;;;0.80;45.50;;;;;;5073379;28;20191;-73
2024/01/21 09:09:12;;;;;;;25.50;16.52;;;1.30;46.00;;;;;;5077824;28;20178;-73
2024/01/21 09:11:43;;;;;;;14.93;10.18;;;1.70;46.20;;;;;;5075330;28;20206;-73
2024/01/21 09:14:18;;;;;;;16.30;9.48;;;2.10;45.40;;;;;;5075415;28;20182;-73
2024/01/21 09:16:49;;;;;;;13.77;9.35;;;2.40;44.50;;;;;;5074644;28;20248;-73
2024/01/21 09:19:16;;;;;;;9.05;5.70;;;2.60;43.30;;;;;;5078481;28;20675;-73
2024/01/21 09:21:43;;;;;;;6.38;3.53;;;2.80;43.30;;;;;;5087908;28;20214;-72
2024/01/21 09:24:11;;;;;;;10.30;6.65;;;3.10;42.80;;;;;;5074390;28;20182;-73
2024/01/21 09:26:38;;;;;;;9.77;5.75;;;3.40;42.10;;;;;;5074435;28;20577;-73
2024/01/21 09:29:05;;;;;;;5.70;4.18;;;3.70;42.10;;;;;;5074227;28;20235;-73
2024/01/21 09:31:32;;;;;;;14.30;8.15;;;3.90;41.10;;;;;;5072986;28;20222;-73
2024/01/21 09:34:00;;;;;;;11.70;8.43;;;3.90;38.60;;;;;;5072885;28;20213;-73
2024/01/21 09:36:27;;;;;;;12.52;8.65;;;4.00;38.20;;;;;;5073886;28;20281;-73
2024/01/21 09:38:54;;;;;;;12.23;8.18;;;4.00;37.50;;;;;;5074081;28;20219;-73
2024/01/21 09:41:36;;;;;;;11.88;6.72;;;4.00;36.70;;;;;;5073910;28;20186;-73
2024/01/21 09:44:04;;;;;;;15.65;5.90;;;4.00;37.10;;;;;;5073728;28;20703;-73
2024/01/21 09:46:31;;;;;;;9.85;6.68;;;4.10;37.20;;;;;;5083061;28;20189;-71
2024/01/21 09:49:03;;;;;;;11.00;6.47;;;4.20;36.80;;;;;;5070374;28;20272;-73
2024/01/21 09:51:31;;;;;;;11.48;6.95;;;4.30;37.10;;;;;;5074089;28;20186;-73
2024/01/21 09:54:00;;;;;;;10.20;7.40;;;4.40;37.10;;;;;;5072727;28;20620;-73
2024/01/21 09:56:27;;;;;;;11.40;6.57;;;4.60;38.40;;;;;;5094142;28;20189;-73
2024/01/21 09:58:57;;;;;;;9.30;6.55;;;4.70;37.60;;;;;;5075046;28;20174;-73
2024/01/21 10:01:24;;;;;;;19.45;13.10;;;4.90;38.40;;;;;;5072769;28;20182;-73
2024/01/21 10:03:51;;;;;;;20.27;14.23;;;5.00;37.80;;;;;;5091174;28;20592;-73
2024/01/21 10:06:20;;;;;;;21.08;11.80;;;5.10;37.40;;;;;;5093749;28;20707;-73
2024/01/21 10:08:47;;;;;;;18.92;13.70;;;5.10;37.60;;;;;;5093905;28;20189;-73
2024/01/21 10:11:14;;;;;;;26.90;16.15;;;5.20;38.20;;;;;;5094085;28;20273;-73
2024/01/21 10:13:42;;;;;;;15.10;12.10;;;5.20;39.00;;;;;;5094009;28;20603;-73
2024/01/21 10:16:10;;;;;;;17.30;11.23;;;5.30;39.90;;;;;;5089725;28;20210;-73
2024/01/21 10:18:37;;;;;;;19.73;13.02;;;5.40;39.80;;;;;;5094155;28;20192;-73
2024/01/21 10:21:05;;;;;;;16.52;11.57;;;5.50;39.50;;;;;;5094151;28;20224;-73
2024/01/21 10:23:35;;;;;;;13.43;9.70;;;5.60;39.60;;;;;;5078280;28;20182;-73
2024/01/21 10:26:02;;;;;;;13.38;9.43;;;5.40;39.90;;;;;;5091268;28;20239;-73
2024/01/21 10:28:32;;;;;;;12.43;9.15;;;5.20;40.40;;;;;;5093656;28;20205;-73
2024/01/21 10:30:59;;;;;;;15.85;9.68;;;5.10;40.40;;;;;;5083272;28;20241;-73
2024/01/21 10:33:26;;;;;;;12.30;9.30;;;5.00;41.30;;;;;;5074616;28;20714;-73
2024/01/21 10:35:56;;;;;;;14.00;9.07;;;4.90;41.60;;;;;;5073269;28;20301;-73
2024/01/21 10:38:26;;;;;;;10.32;8.23;;;4.80;40.70;;;;;;5073315;28;20186;-73
2024/01/21 10:40:54;;;;;;;11.77;8.95;;;4.90;41.60;;;;;;5081343;28;20185;-73
2024/01/21 10:43:21;;;;;;;16.55;12.07;;;5.20;41.20;;;;;;5092992;28;20205;-73
2024/01/21 10:45:50;;;;;;;14.60;10.57;;;5.40;41.10;;;;;;5093114;28;20216;-74
2024/01/21 10:48:19;;;;;;;13.15;8.57;;;5.70;41.50;;;;;;5092992;28;20277;-73
2024/01/21 10:50:47;;;;;;;15.30;11.05;;;6.00;41.70;;;;;;5084347;28;20186;-74
2024/01/21 10:53:16;;;;;;;16.52;10.27;;;6.20;40.30;;;;;;5073156;28;20245;-73
2024/01/21 10:55:45;;;;;;;14.55;9.95;;;6.60;40.20;;;;;;5072828;28;20189;-74
2024/01/21 10:58:13;;;;;;;18.15;11.70;;;6.80;40.40;;;;;;5072926;28;20709;-74
2024/01/21 11:00:40;;;;;;;16.83;12.02;;;7.00;41.00;;;;;;5073993;28;20190;-74
2024/01/21 11:03:23;;;;;;;13.50;10.40;;;7.10;40.60;;;;;;5074549;28;20197;-73
2024/01/21 11:05:55;;;;;;;14.07;9.40;;;7.00;39.10;;;;;;5071948;28;20185;-73
2024/01/21 11:08:24;;;;;;;18.02;11.93;;;6.90;39.90;;;;;;5072985;28;20178;-74
2024/01/21 11:11:01;;;;;;;16.55;11.45;;;6.70;40.80;;;;;;5073036;28;20222;-74
2024/01/21 11:13:42;;;;;;;14.32;10.63;;;6.50;41.90;;;;;;5072551;28;20720;-71
2024/01/21 11:16:14;;;;;;;16.45;10.90;;;6.40;41.40;;;;;;5090319;28;20216;-73
2024/01/21 11:18:44;;;;;;;16.17;11.68;;;6.30;41.50;;;;;;5093506;28;20205;-74
2024/01/21 11:21:14;;;;;;;14.55;10.35;;;6.20;42.00;;;;;;5093400;28;20238;-73
2024/01/21 11:23:41;;;;;;;9.82;6.90;;;6.10;41.70;;;;;;5090761;28;20189;-73
2024/01/21 11:26:19;;;;;;;10.30;6.63;;;6.00;42.70;;;;;;5052423;28;20193;-73
2024/01/21 11:28:48;;;;;;;7.63;5.32;;;6.00;43.00;;;;;;5052759;28;20217;-73
2024/01/21 11:31:15;;;;;;;11.63;6.63;;;5.90;43.30;;;;;;5052497;28;20248;-73
2024/01/21 11:33:43;;;;;;;15.20;9.75;;;5.90;43.50;;;;;;5067676;28;20292;-73
2024/01/21 11:36:10;;;;;;;14.25;7.45;;;5.80;43.20;;;;;;5073762;28;20269;-73
2024/01/21 11:38:40;;;;;;;15.82;7.57;;;5.70;43.60;;;;;;5072944;28;20217;-73
2024/01/21 11:41:09;;;;;;;12.60;7.47;;;5.60;44.20;;;;;;5074713;28;20204;-73
2024/01/21 11:43:36;;;;;;;12.25;7.65;;;5.50;44.40;;;;;;5088282;28;20213;-73
2024/01/21 11:46:05;;;;;;;16.05;11.10;;;5.40;44.30;;;;;;5093001;28;20342;-73
2024/01/21 11:48:33;;;;;;;14.38;9.60;;;5.20;43.50;;;;;;5092675;28;20201;-73
2024/01/21 11:51:00;;;;;;;17.77;9.98;;;5.10;44.10;;;;;;5090266;28;20697;-72
2024/01/21 11:53:27;;;;;;;14.93;8.93;;;4.90;44.10;;;;;;5071019;28;20252;-73
2024/01/21 11:55:54;;;;;;;13.93;8.77;;;4.70;44.40;;;;;;5072641;28;20298;-73
2024/01/21 11:58:21;;;;;;;13.70;8.27;;;4.60;45.40;;;;;;5074717;28;20624;-73
2024/01/21 12:00:48;;;;;;;16.40;9.82;;;4.40;45.50;;;;;;5085655;28;20185;-72
2024/01/21 12:03:16;;;;;;;18.38;10.13;;;4.40;45.80;;;;;;5075856;28;20251;-73
2024/01/21 12:05:44;;;;;;;15.63;10.32;;;4.30;46.40;;;;;;5076245;28;20288;-72
2024/01/21 12:08:12;;;;;;;15.05;10.25;;;4.30;46.80;;;;;;5076400;28;20269;-73
2024/01/21 12:10:40;;;;;;;11.65;9.00;;;4.30;47.30;;;;;;5076119;28;20247;-73
2024/01/21 12:13:08;;;;;;;17.42;10.65;;;4.30;47.20;;;;;;5089913;28;20290;-72
2024/01/21 12:15:37;;;;;;;28.10;16.02;;;4.30;47.30;;;;;;5096540;28;20556;-73
2024/01/21 12:18:06;;;;;;;18.65;13.18;;;4.30;48.30;;;;;;5096258;28;20215;-73
2024/01/21 12:20:35;;;;;;;18.50;11.55;;;4.40;48.60;;;;;;5080351;28;20221;-72
2024/01/21 12:23:02;;;;;;;15.15;11.55;;;4.40;48.50;;;;;;5081135;28;20182;-72
2024/01/21 12:25:30;;;;;;;18.88;12.75;;;4.50;49.00;;;;;;5096152;28;20281;-72
2024/01/21 12:28:00;;;;;;;14.48;11.10;;;4.60;48.80;;;;;;5096293;28;20185;-73
2024/01/21 12:30:31;;;;;;;14.52;10.43;;;4.70;48.30;;;;;;5081780;28;20257;-73
2024/01/21 12:32:58;;;;;;;21.67;13.20;;;4.80;48.20;;;;;;5093143;28;20651;-73
2024/01/21 12:35:25;;;;;;;18.30;12.65;;;4.80;47.60;;;;;;5095773;28;20280;-73
2024/01/21 12:37:53;;;;;;;19.15;13.23;;;4.80;47.60;;;;;;5095751;28;20247;-73
2024/01/21 12:40:20;;;;;;;16.52;12.38;;;4.80;47.50;;;;;;5095934;28;20198;-73
2024/01/21 12:42:47;;;;;;;21.33;11.32;;;4.70;47.30;;;;;;5089969;28;20595;-73
2024/01/21 12:45:14;;;;;;;27.00;15.52;;;4.70;47.10;;;;;;5076707;28;20270;-73